»·PEaware :: DAL1180 KABQ-KELP

DAL1180 :: KABQ-KELP

FLIGHT INFORMATION

Flight Status: Arrived
Operator:
Delta Air Lines
More flights by this operator :: More flights under this callsign
Pilot: Anonymous 10181 (10181)
Aircraft: BOEING 737-700
(B737)
More flights by this aircraft type
Origin: KABQ Albuquerque Intl Sunport
United States
Destination: KELP El Paso Intl
United States
More flights between these airports :: More routes between these airports
Route: MNZNO3 ONM SLNNK WAZKO1
File this flight plan on PilotEdge
Remarks: Happy Friday!
Altitude:
(Current/Filed)
36,000ft
Speed:
(Current/Filed)
450kts
Departed: 16-Sep-22 09:55 AM
Arrived: 16-Sep-22 10:36 AM
Distance/Time
Traveled:
195nm/0:41
Distance/Time
To Go:
Arrived

Flight Plot

Page will automatically refresh every two minutes.

Flight plan parsing failed; only flown route is shown


Map Options




Map Legend


Flown Route
Filed Route
Departure Airport
Arrival Airport
Navaid (VOR, NDB)
Fix

Horizontal Profiles

Position Reports

Time Latitude Longitude Heading Altitude Ground
Speed
16-Sep-22 09:21 35.046811 -106.614931 10 5330ft 0kts
16-Sep-22 09:22 35.046811 -106.614931 10 5330ft 0kts
16-Sep-22 09:23 35.046811 -106.614931 10 5330ft 0kts
16-Sep-22 09:24 35.046811 -106.614931 10 5330ft 0kts
16-Sep-22 09:25 35.046811 -106.614931 10 5330ft 0kts
16-Sep-22 09:26 35.046811 -106.614931 10 5330ft 0kts
16-Sep-22 09:27 35.046811 -106.614931 10 5330ft 0kts
16-Sep-22 09:28 35.046811 -106.614931 10 5330ft 0kts
16-Sep-22 09:29 35.046811 -106.614931 10 5330ft 0kts
16-Sep-22 09:30 35.046811 -106.614931 10 5330ft 0kts
16-Sep-22 09:31 35.046811 -106.614931 10 5330ft 0kts
16-Sep-22 09:32 35.046811 -106.614931 10 5330ft 0kts
16-Sep-22 09:33 35.046811 -106.614931 10 5330ft 0kts
16-Sep-22 09:34 35.046811 -106.614931 10 5330ft 0kts
16-Sep-22 09:35 35.046811 -106.614931 10 5331ft 0kts
16-Sep-22 09:36 35.046811 -106.614931 10 5331ft 0kts
16-Sep-22 09:37 35.046811 -106.614931 10 5331ft 0kts
16-Sep-22 09:38 35.046811 -106.614931 10 5331ft 0kts
16-Sep-22 09:39 35.046811 -106.614931 10 5331ft 0kts
16-Sep-22 09:40 35.046811 -106.614931 10 5331ft 0kts
16-Sep-22 09:41 35.046811 -106.614931 10 5331ft 0kts
16-Sep-22 09:42 35.046811 -106.614931 10 5331ft 0kts
16-Sep-22 09:43 35.046811 -106.614931 10 5331ft 0kts
16-Sep-22 09:44 35.046564 -106.614721 288 5336ft 2kts
16-Sep-22 09:45 35.046541 -106.614580 274 5331ft 0kts
16-Sep-22 09:46 35.046541 -106.614580 274 5331ft 0kts
16-Sep-22 09:47 35.046541 -106.614580 274 5331ft 0kts
16-Sep-22 09:48 35.046541 -106.614580 274 5331ft 0kts
16-Sep-22 09:49 35.046541 -106.614580 274 5331ft 0kts
16-Sep-22 09:50 35.046541 -106.614585 273 5331ft 0kts
16-Sep-22 09:51 35.046146 -106.615318 233 5328ft 11kts
16-Sep-22 09:52 35.045578 -106.619211 270 5323ft 14kts
16-Sep-22 09:53 35.045388 -106.621250 215 5317ft 5kts
16-Sep-22 09:54 35.044357 -106.618543 90 5324ft 64kts
16-Sep-22 09:55 35.042587 -106.565731 99 7256ft 181kts
16-Sep-22 09:56 34.997398 -106.521755 144 8729ft 259kts
16-Sep-22 09:57 34.924089 -106.514348 184 9255ft 294kts
16-Sep-22 09:58 34.842761 -106.517560 185 12978ft 293kts
16-Sep-22 09:59 34.764666 -106.548733 215 14954ft 334kts
16-Sep-22 10:00 34.679396 -106.616331 214 16202ft 382kts
16-Sep-22 10:01 34.588313 -106.687113 214 18278ft 396kts
16-Sep-22 10:02 34.494074 -106.760230 214 20119ft 406kts
16-Sep-22 10:03 34.384713 -106.803964 199 21900ft 422kts
16-Sep-22 10:04 34.273025 -106.849973 204 23492ft 428kts
16-Sep-22 10:05 34.161344 -106.903648 204 25068ft 434kts
16-Sep-22 10:06 34.047989 -106.956792 204 26252ft 442kts
16-Sep-22 10:07 33.932601 -107.010577 204 27436ft 446kts
16-Sep-22 10:08 33.816179 -107.064695 204 28322ft 451kts
16-Sep-22 10:09 33.700134 -107.118460 204 29766ft 444kts
16-Sep-22 10:10 33.585950 -107.171233 205 31346ft 434kts
16-Sep-22 10:11 33.473334 -107.223177 204 32056ft 434kts
16-Sep-22 10:12 33.361063 -107.274788 204 32090ft 431kts
16-Sep-22 10:13 33.244693 -107.311675 195 32120ft 437kts
16-Sep-22 10:14 33.125321 -107.339455 196 32090ft 437kts
16-Sep-22 10:15 33.006130 -107.368398 195 31881ft 438kts
16-Sep-22 10:16 32.889479 -107.324730 148 31167ft 475kts
16-Sep-22 10:17 32.784742 -107.229164 147 27859ft 480kts
16-Sep-22 10:18 32.677881 -107.134160 146 24194ft 473kts
16-Sep-22 10:19 32.575491 -107.043354 146 21878ft 433kts
16-Sep-22 10:20 32.482793 -106.964337 148 20172ft 401kts
16-Sep-22 10:21 32.392866 -106.889775 147 17937ft 390kts
16-Sep-22 10:22 32.305779 -106.817349 147 15571ft 366kts
16-Sep-22 10:23 32.226341 -106.751429 147 13548ft 337kts
16-Sep-22 10:24 32.148832 -106.687291 147 11615ft 346kts
16-Sep-22 10:25 32.066445 -106.638087 161 10365ft 316kts
16-Sep-22 10:26 32.022672 -106.559960 107 9588ft 290kts
16-Sep-22 10:27 31.999154 -106.474006 124 8823ft 261kts
16-Sep-22 10:28 31.959177 -106.407454 126 8122ft 237kts
16-Sep-22 10:29 31.924834 -106.349257 126 7445ft 193kts
16-Sep-22 10:30 31.895404 -106.299433 126 6912ft 183kts
16-Sep-22 10:31 31.862317 -106.260983 190 6244ft 170kts
16-Sep-22 10:32 31.818278 -106.278387 198 5562ft 157kts
16-Sep-22 10:33 31.797084 -106.313158 281 5038ft 166kts
16-Sep-22 10:34 31.800955 -106.365668 271 3968ft 150kts
16-Sep-22 10:35 31.801861 -106.385017 271 3936ft 22kts
16-Sep-22 10:36 31.802177 -106.392255 298 3932ft 17kts
16-Sep-22 10:37 31.800360 -106.395103 171 3930ft 0kts
16-Sep-22 10:39 31.800360 -106.395103 171 3930ft 0kts

Navigation Log

Ident Type
Flight plan parsing failed, navigation log unavailable